Time;durP1;ratioP1;P1;durP2;ratioP2;P2;SDS_P1;SDS_P2;PMS_P1;PMS_P2;Temp;Humidity;BMP_temperature;BMP_pressure;BME280_temperature;BME280_humidity;BME280_pressure;Samples;Min_cycle;Max_cycle;Signal;HPM_P1;HPM_P2
2022/09/11 00:02:02;;;;;;;6.33;2.20;;;25.30;99.90;;;;;;1901702;74;21110;-83
2022/09/11 00:04:33;;;;;;;4.67;2.80;;;25.30;99.90;;;;;;1876261;75;21129;-83
2022/09/11 00:07:04;;;;;;;6.62;2.90;;;25.30;99.90;;;;;;1876785;75;21159;-83
2022/09/11 00:09:35;;;;;;;8.48;6.00;;;25.30;99.90;;;;;;1906200;74;21237;-84
2022/09/11 00:12:07;;;;;;;16.50;9.20;;;25.30;99.90;;;;;;1896267;74;21274;-84
2022/09/11 00:14:39;;;;;;;7.35;4.80;;;25.30;99.90;;;;;;1913866;74;21162;-84
2022/09/11 00:17:10;;;;;;;4.80;3.08;;;25.30;99.90;;;;;;1943757;73;21548;-83
2022/09/11 00:19:41;;;;;;;3.87;2.30;;;25.30;99.90;;;;;;1857804;76;21511;-83
2022/09/11 00:22:15;;;;;;;4.10;1.95;;;25.30;99.90;;;;;;1900244;75;21076;-83
2022/09/11 00:24:45;;;;;;;4.35;1.70;;;25.30;99.90;;;;;;1894076;74;21793;-83
2022/09/11 00:27:16;;;;;;;2.70;1.80;;;25.30;99.90;;;;;;1895589;74;21204;-84
2022/09/11 00:29:48;;;;;;;4.33;1.90;;;25.30;99.90;;;;;;1903449;74;21101;-83
2022/09/11 00:32:19;;;;;;;2.87;1.82;;;25.30;99.90;;;;;;1886673;74;21246;-83
2022/09/11 00:34:50;;;;;;;2.62;1.60;;;25.30;99.90;;;;;;1853540;76;21639;-83
2022/09/11 00:37:21;;;;;;;3.58;1.90;;;25.30;99.90;;;;;;1879129;75;21156;-83
2022/09/11 00:39:53;;;;;;;2.65;1.60;;;25.30;99.90;;;;;;1880959;74;21146;-83
2022/09/11 00:42:24;;;;;;;2.83;1.60;;;25.30;99.90;;;;;;1931816;73;21194;-83
2022/09/11 00:44:59;;;;;;;2.33;1.30;;;25.30;99.90;;;;;;1895480;74;21237;-83
2022/09/11 00:47:31;;;;;;;4.58;1.70;;;25.30;99.90;;;;;;1860801;75;21059;-83
2022/09/11 00:50:04;;;;;;;3.67;1.80;;;25.30;99.90;;;;;;1893545;74;21652;-83
2022/09/11 00:52:37;;;;;;;2.45;1.65;;;25.20;99.90;;;;;;1869141;74;21156;-83
2022/09/11 00:55:10;;;;;;;2.50;1.60;;;25.30;99.90;;;;;;1883554;74;21621;-85
2022/09/11 00:57:46;;;;;;;2.80;2.08;;;25.30;99.90;;;;;;1895331;74;21138;-84
2022/09/11 01:00:17;;;;;;;2.55;1.65;;;25.20;99.90;;;;;;1907094;74;21105;-84
2022/09/11 01:02:50;;;;;;;4.35;1.82;;;25.30;99.90;;;;;;1901922;74;21117;-83
2022/09/11 01:05:21;;;;;;;4.33;1.95;;;25.20;99.90;;;;;;1852960;76;21799;-82
2022/09/11 01:07:54;;;;;;;4.58;2.52;;;25.30;99.90;;;;;;1926823;74;21222;-84
2022/09/11 01:10:28;;;;;;;3.75;2.20;;;25.30;99.90;;;;;;1906479;74;21129;-85
2022/09/11 01:13:01;;;;;;;4.15;2.12;;;25.30;99.90;;;;;;1914403;73;21175;-84
2022/09/11 01:15:34;;;;;;;4.62;2.12;;;25.30;99.90;;;;;;1915053;74;21094;-85
2022/09/11 01:18:11;;;;;;;4.03;1.98;;;25.30;99.90;;;;;;1915209;73;21261;-84
2022/09/11 01:20:43;;;;;;;3.70;2.08;;;25.30;99.90;;;;;;1913868;73;22052;-83
2022/09/11 01:23:17;;;;;;;2.80;1.42;;;25.40;99.90;;;;;;1922322;73;21187;-84
2022/09/11 01:25:49;;;;;;;3.15;1.70;;;25.40;99.90;;;;;;1919503;73;21221;-84
2022/09/11 01:28:22;;;;;;;4.08;1.90;;;25.40;99.90;;;;;;1879009;75;21193;-85
2022/09/11 01:30:56;;;;;;;3.33;2.33;;;25.40;99.90;;;;;;1870028;75;21139;-84
2022/09/11 01:33:28;;;;;;;3.02;1.72;;;25.50;99.90;;;;;;1894078;74;21559;-83
2022/09/11 01:36:00;;;;;;;3.15;1.90;;;25.50;99.90;;;;;;1892340;75;21182;-83
2022/09/11 01:38:34;;;;;;;3.15;1.95;;;25.50;99.90;;;;;;1894050;74;21108;-73
2022/09/11 01:41:07;;;;;;;3.67;1.95;;;25.50;99.90;;;;;;1879180;74;21165;-71
2022/09/11 01:43:41;;;;;;;4.08;1.95;;;25.50;99.90;;;;;;1906385;74;21111;-73
2022/09/11 01:46:14;;;;;;;4.05;2.00;;;25.50;99.90;;;;;;1906242;74;21199;-72
2022/09/11 01:48:47;;;;;;;2.60;2.00;;;25.50;99.90;;;;;;1876706;75;21141;-73
2022/09/11 01:51:21;;;;;;;3.02;2.05;;;25.50;99.90;;;;;;1904046;74;21170;-75
2022/09/11 01:53:53;;;;;;;4.12;1.95;;;25.50;99.90;;;;;;1908589;73;21659;-74
2022/09/11 01:56:27;;;;;;;5.17;2.35;;;25.50;99.90;;;;;;1871738;74;21127;-73
2022/09/11 01:59:00;;;;;;;5.20;2.25;;;25.50;99.90;;;;;;1815861;77;21123;-73
2022/09/11 02:01:51;;;;;;;8.08;3.47;;;25.50;99.90;;;;;;1835634;76;21232;-74
2022/09/11 02:04:24;;;;;;;8.00;4.42;;;25.50;99.90;;;;;;1846847;76;21626;-74
2022/09/11 02:06:58;;;;;;;5.30;3.35;;;25.50;99.90;;;;;;1854453;75;21162;-74
2022/09/11 02:09:31;;;;;;;8.20;3.80;;;25.50;99.90;;;;;;1849084;76;21155;-71
2022/09/11 02:12:05;;;;;;;6.87;4.40;;;25.50;99.90;;;;;;1849139;76;21975;-74
2022/09/11 02:14:39;;;;;;;8.05;3.72;;;25.50;99.90;;;;;;1869118;75;21173;-74
2022/09/11 02:17:12;;;;;;;3.92;2.95;;;25.50;99.90;;;;;;1862603;75;21135;-77
2022/09/11 02:19:44;;;;;;;3.58;2.52;;;25.40;99.90;;;;;;1856530;76;21190;-78
2022/09/11 02:22:15;;;;;;;4.85;2.40;;;25.40;99.90;;;;;;1856786;75;21082;-80
2022/09/11 02:24:46;;;;;;;3.10;1.98;;;25.30;99.90;;;;;;1856843;75;21739;-74
2022/09/11 02:27:20;;;;;;;3.67;2.20;;;25.30;99.90;;;;;;1898587;73;21139;-74
2022/09/11 02:29:52;;;;;;;3.17;2.00;;;25.30;99.90;;;;;;1909047;74;21106;-72
2022/09/11 02:32:25;;;;;;;4.30;2.05;;;25.30;99.90;;;;;;1896379;73;21452;-71
2022/09/11 02:34:58;;;;;;;2.90;1.90;;;25.30;99.90;;;;;;1927934;73;22092;-72
2022/09/11 02:37:31;;;;;;;3.17;2.30;;;25.30;99.90;;;;;;1917333;73;21118;-71
2022/09/11 02:40:03;;;;;;;2.60;1.70;;;25.30;99.90;;;;;;1911338;73;21100;-71
2022/09/11 02:42:36;;;;;;;2.20;1.52;;;25.30;99.90;;;;;;1914805;73;21189;-72
2022/09/11 02:45:08;;;;;;;3.77;1.70;;;25.30;99.90;;;;;;1917858;73;21252;-72
2022/09/11 02:47:41;;;;;;;3.90;2.10;;;25.40;99.90;;;;;;1911029;73;21080;-72
2022/09/11 02:50:14;;;;;;;3.47;1.87;;;25.40;99.90;;;;;;1918038;73;21076;-71
2022/09/11 02:52:47;;;;;;;2.52;1.67;;;25.40;99.90;;;;;;1906803;73;21571;-71
2022/09/11 02:55:18;;;;;;;3.33;1.40;;;25.50;99.90;;;;;;1903759;73;21178;-72
2022/09/11 02:57:52;;;;;;;2.22;1.30;;;25.50;99.90;;;;;;1902249;74;21127;-71
2022/09/11 03:00:22;;;;;;;2.17;1.67;;;25.40;99.90;;;;;;1928011;73;21201;-73
2022/09/11 03:02:53;;;;;;;2.92;1.50;;;25.50;99.90;;;;;;1853298;75;21128;-73
2022/09/11 03:05:24;;;;;;;2.80;1.57;;;25.50;99.90;;;;;;1834695;78;21603;-72
2022/09/11 03:07:55;;;;;;;3.60;1.67;;;25.50;99.90;;;;;;1831856;77;21249;-71
2022/09/11 03:10:26;;;;;;;4.25;1.75;;;25.50;99.90;;;;;;1881026;74;21164;-73
2022/09/11 03:12:58;;;;;;;5.55;2.15;;;25.50;99.90;;;;;;1921408;73;21154;-72
2022/09/11 03:15:29;;;;;;;2.35;1.50;;;25.60;99.90;;;;;;1930473;73;21109;-73
2022/09/11 03:18:00;;;;;;;3.67;2.15;;;25.60;99.90;;;;;;1928424;73;21095;-72
2022/09/11 03:20:31;;;;;;;3.98;1.42;;;25.70;99.90;;;;;;1930418;73;21225;-71
2022/09/11 03:23:07;;;;;;;5.15;1.75;;;25.70;99.90;;;;;;1923298;73;21153;-73
2022/09/11 03:25:34;;;;;;;2.67;1.82;;;25.70;99.90;;;;;;1926864;73;21132;-73
2022/09/11 03:28:05;;;;;;;4.65;1.92;;;25.80;99.90;;;;;;1925908;74;21146;-73
2022/09/11 03:30:36;;;;;;;4.37;2.20;;;25.80;99.90;;;;;;1920426;73;21111;-73
2022/09/11 03:33:07;;;;;;;6.67;1.80;;;25.80;99.90;;;;;;1931425;73;21228;-74
2022/09/11 03:35:38;;;;;;;3.37;1.80;;;25.90;99.90;;;;;;1920871;73;21136;-73
2022/09/11 03:38:09;;;;;;;4.62;1.50;;;25.90;99.90;;;;;;1923905;73;21043;-74
2022/09/11 03:40:42;;;;;;;2.65;1.50;;;26.00;99.90;;;;;;1923204;74;21177;-73
2022/09/11 03:43:14;;;;;;;2.75;1.67;;;26.00;99.90;;;;;;1927045;74;22163;-75
2022/09/11 03:45:45;;;;;;;1.82;1.42;;;26.00;99.90;;;;;;1926566;73;21587;-74
2022/09/11 03:48:18;;;;;;;2.75;1.67;;;26.00;99.90;;;;;;1920994;73;21164;-74
2022/09/11 03:50:48;;;;;;;4.10;2.08;;;26.00;99.90;;;;;;1918734;73;21123;-73
2022/09/11 03:53:19;;;;;;;3.45;1.75;;;26.00;99.90;;;;;;1923704;73;21119;-73
2022/09/11 03:55:50;;;;;;;2.85;1.40;;;26.10;99.90;;;;;;1936077;74;21129;-73
2022/09/11 03:58:21;;;;;;;3.77;1.72;;;26.10;99.90;;;;;;1939961;73;21078;-74
2022/09/11 04:00:52;;;;;;;2.87;1.60;;;26.10;99.90;;;;;;1939905;73;21222;-74
2022/09/11 04:03:23;;;;;;;2.45;1.50;;;26.20;99.90;;;;;;1923038;73;21229;-74
2022/09/11 04:05:56;;;;;;;2.08;1.30;;;26.20;99.90;;;;;;1933577;73;21579;-74
2022/09/11 04:08:36;;;;;;;2.98;1.50;;;26.30;99.90;;;;;;1871925;75;21541;-74
2022/09/11 04:11:03;;;;;;;6.10;2.00;;;26.40;99.90;;;;;;1838441;77;21119;-72
2022/09/11 04:13:36;;;;;;;3.45;1.80;;;26.40;99.90;;;;;;1926031;73;21228;-74
2022/09/11 04:16:10;;;;;;;2.00;1.40;;;26.50;99.90;;;;;;1933116;73;21229;-74
2022/09/11 04:18:43;;;;;;;3.20;1.82;;;26.50;99.90;;;;;;1879451;75;21163;-74
2022/09/11 04:21:34;;;;;;;14.73;2.67;;;26.60;99.90;;;;;;1872966;75;21169;-75
2022/09/11 04:24:05;;;;;;;5.42;1.98;;;26.60;99.90;;;;;;1878851;75;21131;-74
2022/09/11 04:26:36;;;;;;;9.73;2.20;;;26.70;99.90;;;;;;1881409;75;21076;-74
2022/09/11 04:29:07;;;;;;;6.10;1.90;;;26.70;99.90;;;;;;1879486;75;21103;-74
2022/09/11 04:31:40;;;;;;;3.95;1.75;;;26.80;99.90;;;;;;1857233;76;21092;-74
2022/09/11 04:34:11;;;;;;;2.98;2.00;;;26.90;99.90;;;;;;1882546;75;21147;-74
2022/09/11 04:36:42;;;;;;;3.42;1.90;;;26.90;99.90;;;;;;1881443;75;21710;-74
2022/09/11 04:39:13;;;;;;;2.20;1.52;;;27.00;99.90;;;;;;1878519;75;21209;-73
2022/09/11 04:41:44;;;;;;;2.90;1.77;;;27.10;99.90;;;;;;1861626;76;21190;-74
2022/09/11 04:44:15;;;;;;;3.67;1.67;;;27.10;99.90;;;;;;1874750;75;21634;-73
2022/09/11 04:46:46;;;;;;;3.35;1.90;;;27.20;99.90;;;;;;1882306;75;21138;-75
2022/09/11 04:49:18;;;;;;;3.58;1.75;;;27.40;99.90;;;;;;1880964;75;21151;-74
2022/09/11 04:51:49;;;;;;;2.62;1.75;;;27.60;99.90;;;;;;1882416;75;21614;-74
2022/09/11 04:54:20;;;;;;;2.60;1.62;;;27.80;99.90;;;;;;1862811;77;21936;-75
2022/09/11 04:56:52;;;;;;;2.22;1.40;;;28.00;99.90;;;;;;1880326;76;21126;-74
2022/09/11 04:59:23;;;;;;;3.72;1.50;;;28.10;99.90;;;;;;1874714;75;21688;-74
2022/09/11 05:01:54;;;;;;;3.45;1.65;;;28.10;99.90;;;;;;1910357;73;21151;-75
2022/09/11 05:04:25;;;;;;;6.37;2.00;;;28.20;99.90;;;;;;1928782;73;21155;-74
2022/09/11 05:06:56;;;;;;;3.00;1.55;;;28.10;99.90;;;;;;1866295;75;21532;-74
2022/09/11 05:09:27;;;;;;;3.33;2.08;;;28.20;99.90;;;;;;1846019;76;21131;-74
2022/09/11 05:11:58;;;;;;;4.37;1.98;;;28.10;99.90;;;;;;1873255;75;21124;-73
2022/09/11 05:14:31;;;;;;;3.83;1.40;;;28.20;99.90;;;;;;1847177;76;21084;-74
2022/09/11 05:17:02;;;;;;;2.90;1.60;;;28.20;99.90;;;;;;1879533;75;21725;-75
2022/09/11 05:19:33;;;;;;;2.58;1.60;;;28.30;99.90;;;;;;1880593;74;21052;-74
2022/09/11 05:22:04;;;;;;;2.67;1.42;;;28.30;99.90;;;;;;1872131;76;21245;-73
2022/09/11 05:24:35;;;;;;;3.45;1.45;;;28.30;99.90;;;;;;1883013;76;21555;-76
2022/09/11 05:27:07;;;;;;;3.17;2.20;;;28.30;99.90;;;;;;1883097;75;21153;-75
2022/09/11 05:29:38;;;;;;;3.40;1.90;;;28.30;99.90;;;;;;1871742;75;21099;-74
2022/09/11 05:32:08;;;;;;;2.50;1.90;;;28.30;99.90;;;;;;1876853;75;21552;-75
2022/09/11 05:34:40;;;;;;;3.33;1.80;;;28.30;99.90;;;;;;1936645;73;21572;-75
2022/09/11 05:37:11;;;;;;;6.35;2.10;;;28.30;99.90;;;;;;1884731;75;21523;-74
2022/09/11 05:39:42;;;;;;;3.22;1.92;;;28.30;99.90;;;;;;1918102;73;21083;-74
2022/09/11 05:42:13;;;;;;;2.98;1.40;;;28.20;99.90;;;;;;1937229;73;21142;-75
2022/09/11 05:44:46;;;;;;;2.92;1.80;;;28.30;99.90;;;;;;1878475;75;21060;-75
2022/09/11 05:47:18;;;;;;;2.83;1.92;;;28.40;99.90;;;;;;1796794;76;21186;-76
2022/09/11 05:49:49;;;;;;;3.62;2.00;;;28.60;99.90;;;;;;1802651;78;21182;-76
2022/09/11 05:52:20;;;;;;;6.50;2.10;;;28.70;99.90;;;;;;1813616;79;21580;-74
2022/09/11 05:54:52;;;;;;;2.62;1.70;;;28.70;99.90;;;;;;1870595;76;21168;-74
2022/09/11 05:57:23;;;;;;;5.45;1.70;;;28.70;99.90;;;;;;1813600;79;21703;-75
2022/09/11 05:59:54;;;;;;;4.67;2.20;;;28.70;99.90;;;;;;1871410;76;21666;-75
2022/09/11 06:02:25;;;;;;;3.55;1.72;;;28.70;99.90;;;;;;1861978;76;21123;-74
2022/09/11 06:04:56;;;;;;;3.90;1.80;;;28.70;99.90;;;;;;1813451;79;21109;-74
2022/09/11 06:07:28;;;;;;;5.03;1.98;;;28.60;99.90;;;;;;1871044;76;21188;-77
2022/09/11 06:09:59;;;;;;;4.17;2.27;;;28.60;99.90;;;;;;1812387;79;21112;-75
2022/09/11 06:12:31;;;;;;;4.33;2.00;;;28.50;99.90;;;;;;1871417;76;21091;-74
2022/09/11 06:15:02;;;;;;;4.83;2.08;;;28.40;99.90;;;;;;1813754;79;21154;-74
2022/09/11 06:17:33;;;;;;;2.80;2.05;;;28.40;99.90;;;;;;1871851;75;21788;-73
2022/09/11 06:20:04;;;;;;;4.37;2.05;;;28.30;99.90;;;;;;1903694;75;21639;-73
2022/09/11 06:22:36;;;;;;;3.30;2.05;;;28.30;99.90;;;;;;1903722;75;21083;-73
2022/09/11 06:25:08;;;;;;;4.35;2.17;;;28.30;99.90;;;;;;1903880;75;21072;-74
2022/09/11 06:27:38;;;;;;;2.72;1.90;;;28.30;99.90;;;;;;1900609;75;21117;-74
2022/09/11 06:30:10;;;;;;;4.97;2.00;;;28.30;99.90;;;;;;1901079;75;21171;-75
2022/09/11 06:32:41;;;;;;;6.87;4.85;;;28.30;99.90;;;;;;1903898;75;21170;-75
2022/09/11 06:35:12;;;;;;;4.10;2.40;;;28.40;99.90;;;;;;1903745;75;21977;-75
2022/09/11 06:37:43;;;;;;;5.12;2.17;;;28.60;99.90;;;;;;1901431;75;21155;-75
2022/09/11 06:40:14;;;;;;;3.77;2.37;;;28.60;99.90;;;;;;1903237;75;21197;-74
2022/09/11 06:42:44;;;;;;;3.90;2.20;;;28.60;99.90;;;;;;1902664;74;21756;-75
2022/09/11 06:45:16;;;;;;;3.25;2.22;;;28.60;99.90;;;;;;1903926;75;21604;-75
2022/09/11 06:47:47;;;;;;;3.75;2.50;;;28.60;99.90;;;;;;1914382;74;21126;-73
2022/09/11 06:50:18;;;;;;;3.62;2.22;;;28.60;99.90;;;;;;1918772;73;21633;-73
2022/09/11 06:52:50;;;;;;;4.17;2.20;;;28.60;99.90;;;;;;1919000;75;21078;-75
2022/09/11 06:55:21;;;;;;;4.62;2.40;;;28.50;99.90;;;;;;1917758;75;21134;-73
2022/09/11 06:57:52;;;;;;;3.40;2.40;;;28.50;99.90;;;;;;1919018;75;21179;-74
2022/09/11 07:00:24;;;;;;;4.78;2.70;;;28.60;99.90;;;;;;1918956;75;21141;-74
2022/09/11 07:02:58;;;;;;;4.65;2.12;;;28.60;99.90;;;;;;1919124;75;21179;-75
2022/09/11 07:05:27;;;;;;;2.70;2.20;;;28.60;99.90;;;;;;1918951;75;21191;-74
2022/09/11 07:07:58;;;;;;;3.08;2.65;;;28.60;99.90;;;;;;1918474;75;21059;-74
2022/09/11 07:10:29;;;;;;;5.28;2.47;;;28.70;99.90;;;;;;1919191;74;21589;-74
2022/09/11 07:13:00;;;;;;;2.77;2.45;;;28.70;99.90;;;;;;1917930;75;21118;-74
2022/09/11 07:15:31;;;;;;;3.08;2.77;;;28.80;99.90;;;;;;1917795;75;21106;-75
2022/09/11 07:18:01;;;;;;;3.98;2.20;;;28.80;99.90;;;;;;1917675;75;21125;-74
2022/09/11 07:20:33;;;;;;;4.70;2.52;;;28.80;99.90;;;;;;1913899;75;21157;-74
2022/09/11 07:23:03;;;;;;;3.37;2.30;;;28.80;99.90;;;;;;1910673;75;21071;-75
2022/09/11 07:25:37;;;;;;;4.55;2.65;;;28.80;99.90;;;;;;1917989;75;21109;-74
2022/09/11 07:28:11;;;;;;;3.52;2.17;;;28.80;99.90;;;;;;1915473;75;21136;-74
2022/09/11 07:30:40;;;;;;;3.47;2.30;;;28.90;99.90;;;;;;1914338;74;21107;-74
2022/09/11 07:33:11;;;;;;;3.15;2.47;;;28.90;99.90;;;;;;1917676;74;21150;-73
2022/09/11 07:35:42;;;;;;;3.17;2.15;;;28.90;99.90;;;;;;1917782;74;21586;-74
2022/09/11 07:38:13;;;;;;;3.45;2.30;;;28.90;99.90;;;;;;1912802;74;21131;-74
2022/09/11 07:40:44;;;;;;;3.75;2.55;;;28.90;99.90;;;;;;1911652;75;21139;-75
2022/09/11 07:43:14;;;;;;;5.35;3.10;;;28.90;99.90;;;;;;1911689;74;21158;-74
2022/09/11 07:45:45;;;;;;;3.25;2.40;;;28.90;99.90;;;;;;1910219;75;21131;-74
2022/09/11 07:48:16;;;;;;;4.08;2.50;;;28.80;99.90;;;;;;1906688;75;21613;-74
2022/09/11 07:50:50;;;;;;;5.67;2.58;;;28.80;99.90;;;;;;1910889;75;21579;-73
2022/09/11 07:53:21;;;;;;;4.35;2.12;;;28.80;99.90;;;;;;1908290;75;21160;-74
2022/09/11 07:55:51;;;;;;;3.37;2.30;;;28.80;99.90;;;;;;1908842;74;21122;-74
2022/09/11 07:58:25;;;;;;;5.30;2.77;;;28.80;99.90;;;;;;1912538;74;21672;-74
2022/09/11 08:00:57;;;;;;;4.47;2.40;;;28.80;99.90;;;;;;1910348;74;21093;-75
2022/09/11 08:03:30;;;;;;;4.00;2.37;;;28.80;99.90;;;;;;1908520;75;21103;-74
2022/09/11 08:06:02;;;;;;;3.12;2.47;;;28.80;99.90;;;;;;1905372;75;21075;-75
2022/09/11 08:08:34;;;;;;;4.87;2.50;;;28.80;99.90;;;;;;1908498;73;21239;-75
2022/09/11 08:11:08;;;;;;;4.28;3.10;;;28.80;99.90;;;;;;1855667;76;21195;-75
2022/09/11 08:13:40;;;;;;;6.90;3.00;;;28.80;99.90;;;;;;1911240;75;21150;-73
2022/09/11 08:16:11;;;;;;;4.75;2.75;;;28.80;99.90;;;;;;1912834;74;21166;-74
2022/09/11 08:18:42;;;;;;;4.90;2.90;;;28.90;99.90;;;;;;1912344;75;21598;-74
2022/09/11 08:21:13;;;;;;;3.83;2.80;;;28.90;99.90;;;;;;1830038;77;21663;-73
2022/09/11 08:23:46;;;;;;;4.17;2.55;;;28.90;99.90;;;;;;1862427;77;21151;-73
2022/09/11 08:26:20;;;;;;;4.90;2.80;;;28.90;99.90;;;;;;1829454;78;21673;-74
2022/09/11 08:28:51;;;;;;;6.40;2.72;;;28.90;99.90;;;;;;1860823;75;21135;-75
2022/09/11 08:31:25;;;;;;;4.05;3.27;;;28.90;99.90;;;;;;1826873;78;21096;-75
2022/09/11 08:33:57;;;;;;;5.45;3.30;;;28.90;99.90;;;;;;1839835;77;21150;-73
2022/09/11 08:36:28;;;;;;;6.25;2.95;;;29.00;99.90;;;;;;1826967;78;21167;-74
2022/09/11 08:39:01;;;;;;;6.37;2.85;;;29.00;99.90;;;;;;1862232;77;21505;-74
2022/09/11 08:41:34;;;;;;;5.10;3.20;;;29.20;99.90;;;;;;1860420;75;21609;-73
2022/09/11 08:44:08;;;;;;;7.03;3.27;;;29.30;99.90;;;;;;1858194;75;21158;-73
2022/09/11 08:46:41;;;;;;;13.62;8.43;;;29.40;99.90;;;;;;1860288;77;21197;-74
2022/09/11 08:49:14;;;;;;;5.62;3.58;;;29.50;99.80;;;;;;1856179;76;21166;-74
2022/09/11 08:51:47;;;;;;;5.72;4.20;;;29.50;99.70;;;;;;1910862;75;21079;-72
2022/09/11 08:54:20;;;;;;;10.03;4.03;;;29.50;99.70;;;;;;1916000;74;21094;-72
2022/09/11 08:56:52;;;;;;;7.92;5.03;;;29.50;99.60;;;;;;1911010;74;21111;-72
2022/09/11 08:59:24;;;;;;;5.30;3.35;;;29.60;99.60;;;;;;1914715;75;21114;-73
2022/09/11 09:01:57;;;;;;;3.95;3.05;;;29.60;99.10;;;;;;1912910;75;21597;-74
2022/09/11 09:04:27;;;;;;;4.58;2.80;;;29.50;98.90;;;;;;1912838;75;21090;-72
2022/09/11 09:07:00;;;;;;;3.98;2.67;;;29.50;99.10;;;;;;1914641;75;21113;-73
2022/09/11 09:09:34;;;;;;;6.30;3.17;;;29.50;99.20;;;;;;1914228;75;21523;-72
2022/09/11 09:12:07;;;;;;;4.05;2.90;;;29.50;99.20;;;;;;1913983;75;21138;-73
2022/09/11 09:14:44;;;;;;;3.70;2.75;;;29.50;99.00;;;;;;1914316;74;21190;-73
2022/09/11 09:17:18;;;;;;;4.65;2.95;;;29.60;98.80;;;;;;1912527;75;21114;-72
2022/09/11 09:19:51;;;;;;;4.15;2.60;;;29.50;99.20;;;;;;1914429;73;21561;-71
2022/09/11 09:22:24;;;;;;;3.98;2.52;;;29.50;98.20;;;;;;1913386;75;21094;-73
2022/09/11 09:24:59;;;;;;;4.60;2.83;;;29.60;98.20;;;;;;1912982;74;21582;-73
2022/09/11 09:27:32;;;;;;;4.37;3.22;;;29.50;98.40;;;;;;1911380;75;21900;-72
2022/09/11 09:30:05;;;;;;;4.67;2.58;;;29.50;98.60;;;;;;1915061;74;21122;-74
2022/09/11 09:32:38;;;;;;;4.35;3.45;;;29.50;98.80;;;;;;1914871;75;21235;-73
2022/09/11 09:35:17;;;;;;;5.72;3.37;;;29.40;98.80;;;;;;1914109;75;21146;-73
2022/09/11 09:37:48;;;;;;;5.22;2.98;;;29.40;99.00;;;;;;1914889;74;21546;-73
2022/09/11 09:40:20;;;;;;;4.37;2.95;;;29.30;98.90;;;;;;1912185;75;21607;-73
2022/09/11 09:42:52;;;;;;;5.35;3.00;;;29.30;99.40;;;;;;1914688;74;21184;-73
2022/09/11 09:45:24;;;;;;;4.65;2.87;;;29.30;99.30;;;;;;1915168;75;21192;-72
2022/09/11 09:47:55;;;;;;;4.40;2.90;;;29.30;99.20;;;;;;1910398;75;21507;-73
2022/09/11 09:50:28;;;;;;;6.83;3.10;;;29.30;99.20;;;;;;1913414;75;21168;-73
2022/09/11 09:53:01;;;;;;;5.87;3.10;;;29.30;99.30;;;;;;1911579;75;21051;-72
2022/09/11 09:55:34;;;;;;;4.05;2.62;;;29.30;99.50;;;;;;1913929;75;21697;-73
2022/09/11 09:58:06;;;;;;;5.37;2.70;;;29.30;99.60;;;;;;1911712;75;21130;-74
2022/09/11 10:00:40;;;;;;;5.75;2.80;;;29.30;99.40;;;;;;1910368;75;21180;-74
2022/09/11 10:03:13;;;;;;;3.95;2.58;;;29.30;99.20;;;;;;1913487;74;21086;-74
2022/09/11 10:05:46;;;;;;;3.35;2.47;;;29.40;99.00;;;;;;1912106;75;21158;-73
2022/09/11 10:08:19;;;;;;;4.03;2.50;;;29.40;98.70;;;;;;1914274;75;21114;-74
2022/09/11 10:10:56;;;;;;;4.28;2.80;;;29.30;98.90;;;;;;1911056;75;21947;-73
2022/09/11 10:13:28;;;;;;;7.72;3.12;;;29.30;98.80;;;;;;1908502;75;21616;-74
2022/09/11 10:16:02;;;;;;;3.98;2.90;;;29.30;98.90;;;;;;1915706;75;21703;-72
2022/09/11 10:18:34;;;;;;;6.92;3.02;;;29.30;99.20;;;;;;1913874;73;21561;-73
2022/09/11 10:21:09;;;;;;;4.28;2.42;;;29.30;99.20;;;;;;1915756;75;21658;-72
2022/09/11 10:23:43;;;;;;;3.77;2.42;;;29.30;99.00;;;;;;1910249;75;21103;-72
2022/09/11 10:26:16;;;;;;;4.53;2.80;;;29.30;99.30;;;;;;1908467;75;21130;-72
2022/09/11 10:28:49;;;;;;;5.22;2.70;;;29.20;99.30;;;;;;1917599;73;21259;-72
2022/09/11 10:31:21;;;;;;;4.62;3.40;;;29.20;99.20;;;;;;1912651;74;21121;-73
2022/09/11 10:33:55;;;;;;;4.55;3.02;;;29.20;99.10;;;;;;1913665;74;21123;-73
2022/09/11 10:36:28;;;;;;;4.58;3.15;;;29.20;99.10;;;;;;1915247;75;21163;-73
2022/09/11 10:39:01;;;;;;;5.60;3.10;;;29.10;99.30;;;;;;1915672;75;21078;-73
2022/09/11 10:41:33;;;;;;;6.10;3.10;;;29.10;99.20;;;;;;1915498;75;21113;-72
2022/09/11 10:44:06;;;;;;;4.65;2.65;;;29.10;99.40;;;;;;1914657;75;21539;-72
2022/09/11 10:46:39;;;;;;;5.15;3.25;;;29.10;99.40;;;;;;1937068;73;21545;-72
2022/09/11 10:49:11;;;;;;;5.80;3.30;;;29.00;99.40;;;;;;1912751;74;21200;-74
2022/09/11 10:51:45;;;;;;;4.97;3.00;;;29.00;99.60;;;;;;1903121;74;21052;-73
2022/09/11 10:54:18;;;;;;;4.92;3.17;;;29.00;99.70;;;;;;1902223;74;21127;-73
2022/09/11 10:56:53;;;;;;;3.95;3.10;;;29.00;99.80;;;;;;1902540;75;21213;-72
2022/09/11 10:59:26;;;;;;;6.50;3.27;;;29.00;99.90;;;;;;1897375;74;21093;-73
2022/09/11 11:01:57;;;;;;;4.67;3.20;;;28.90;99.90;;;;;;1905104;74;21123;-72
2022/09/11 11:04:31;;;;;;;4.40;3.20;;;28.80;99.90;;;;;;1865453;77;21135;-72
2022/09/11 11:07:05;;;;;;;4.12;3.08;;;28.80;99.90;;;;;;1837749;77;21138;-73
2022/09/11 11:09:37;;;;;;;7.05;3.67;;;28.80;99.90;;;;;;1832474;78;21178;-72
2022/09/11 11:12:12;;;;;;;6.25;3.37;;;28.70;99.90;;;;;;1822805;77;21241;-72
2022/09/11 11:15:04;;;;;;;5.65;3.58;;;28.70;99.90;;;;;;1832194;77;21202;-73
2022/09/11 11:17:37;;;;;;;5.28;3.60;;;28.70;99.90;;;;;;1833700;78;21173;-73
2022/09/11 11:20:09;;;;;;;6.17;3.45;;;28.60;99.90;;;;;;1835576;77;21635;-73
2022/09/11 11:22:43;;;;;;;8.13;4.17;;;28.60;99.90;;;;;;1837245;77;21144;-73
2022/09/11 11:25:15;;;;;;;5.17;3.65;;;28.60;99.90;;;;;;1837932;77;21608;-73
2022/09/11 11:27:50;;;;;;;5.67;3.72;;;28.60;99.90;;;;;;1847473;76;21567;-73
2022/09/11 11:30:23;;;;;;;5.58;3.92;;;28.50;99.90;;;;;;1849866;77;21164;-73
2022/09/11 11:32:57;;;;;;;6.72;3.77;;;28.50;99.90;;;;;;1847304;77;21151;-73
2022/09/11 11:35:28;;;;;;;8.50;3.90;;;28.50;99.90;;;;;;1844432;76;21140;-73
2022/09/11 11:38:02;;;;;;;7.45;3.90;;;28.50;99.90;;;;;;1845026;76;21623;-73
2022/09/11 11:40:35;;;;;;;5.60;4.22;;;28.40;99.90;;;;;;1824806;77;21672;-72
2022/09/11 11:43:07;;;;;;;6.40;4.03;;;28.40;99.90;;;;;;1836252;77;21794;-72
2022/09/11 11:45:41;;;;;;;7.75;4.10;;;28.40;99.90;;;;;;1816988;78;21448;-72
2022/09/11 11:48:15;;;;;;;9.18;4.25;;;28.30;99.90;;;;;;1835853;77;22204;-72
2022/09/11 11:50:48;;;;;;;6.47;4.28;;;28.30;99.90;;;;;;1824175;76;21216;-71
2022/09/11 11:53:21;;;;;;;4.70;3.50;;;28.30;99.90;;;;;;1811369;78;21138;-84
2022/09/11 11:55:54;;;;;;;8.78;4.12;;;28.30;99.90;;;;;;1895759;74;21269;-83
2022/09/11 11:58:29;;;;;;;6.15;3.70;;;28.30;99.90;;;;;;1911412;74;21130;-83
2022/09/11 12:01:03;;;;;;;6.25;4.12;;;28.30;99.90;;;;;;1907840;74;21089;-84
2022/09/11 12:03:39;;;;;;;6.12;4.55;;;28.30;99.90;;;;;;1902661;74;21095;-84
2022/09/11 12:06:10;;;;;;;7.87;4.92;;;28.20;99.90;;;;;;1900220;75;21150;-84
2022/09/11 12:08:44;;;;;;;12.03;4.62;;;28.20;99.90;;;;;;1902958;74;21207;-84
2022/09/11 12:11:19;;;;;;;6.40;4.60;;;28.20;99.90;;;;;;1904996;74;21866;-83
2022/09/11 12:13:51;;;;;;;6.25;4.00;;;28.20;99.90;;;;;;1902712;74;21182;-83
2022/09/11 12:16:27;;;;;;;6.40;4.33;;;28.20;99.90;;;;;;1903966;75;21055;-84
2022/09/11 12:18:59;;;;;;;8.55;4.50;;;28.20;99.90;;;;;;1902237;74;21083;-84
2022/09/11 12:21:31;;;;;;;6.53;4.37;;;28.10;99.90;;;;;;1892956;75;21103;-83
2022/09/11 12:24:03;;;;;;;7.80;4.47;;;28.10;99.90;;;;;;1898632;75;21654;-84
2022/09/11 12:26:34;;;;;;;6.95;4.78;;;28.20;99.90;;;;;;1903170;74;21107;-84
2022/09/11 12:29:07;;;;;;;9.05;4.45;;;28.20;99.90;;;;;;1901327;75;21110;-84
2022/09/11 12:31:41;;;;;;;7.03;4.35;;;28.10;99.90;;;;;;1904028;74;21065;-83
2022/09/11 12:34:14;;;;;;;7.35;4.58;;;28.10;99.90;;;;;;1901732;75;21130;-84
2022/09/11 12:36:48;;;;;;;8.98;5.40;;;28.10;99.90;;;;;;1896629;75;21201;-83
2022/09/11 12:39:21;;;;;;;14.03;6.53;;;28.10;99.90;;;;;;1901754;74;21925;-84
2022/09/11 12:41:52;;;;;;;7.92;4.70;;;28.10;99.90;;;;;;1899491;74;21125;-83
2022/09/11 12:44:25;;;;;;;7.15;4.62;;;28.10;99.90;;;;;;1903214;74;21127;-83
2022/09/11 12:46:57;;;;;;;10.43;4.30;;;28.10;99.90;;;;;;1899829;74;21490;-84
2022/09/11 12:49:28;;;;;;;9.18;3.92;;;28.10;99.90;;;;;;1902765;75;21238;-84
2022/09/11 12:52:00;;;;;;;6.85;3.83;;;28.10;99.90;;;;;;1903129;75;21704;-83
2022/09/11 12:54:34;;;;;;;8.93;5.08;;;28.10;99.90;;;;;;1902769;75;21163;-83
2022/09/11 12:57:08;;;;;;;11.25;5.30;;;28.10;99.90;;;;;;1903337;75;21065;-83
2022/09/11 12:59:42;;;;;;;7.35;4.85;;;28.10;99.90;;;;;;1901920;75;21146;-83
2022/09/11 13:02:15;;;;;;;7.28;4.70;;;28.00;99.90;;;;;;1907424;74;21645;-82
2022/09/11 13:04:51;;;;;;;8.63;4.90;;;28.10;99.90;;;;;;1903614;75;21125;-84
2022/09/11 13:07:24;;;;;;;7.42;4.53;;;28.10;99.90;;;;;;1902039;75;21634;-84
2022/09/11 13:09:56;;;;;;;9.28;4.40;;;28.10;99.90;;;;;;1899979;75;21082;-84
2022/09/11 13:12:27;;;;;;;7.15;4.03;;;28.00;99.90;;;;;;1903541;74;21227;-84